createdAt,value
2019-02-15T00:02:18.983Z,10.67
2019-02-15T00:04:47.504Z,10.60
2019-02-15T00:07:17.072Z,10.07
2019-02-15T00:09:45.537Z,10.30
2019-02-15T00:12:14.537Z,10.77
2019-02-15T00:14:50.038Z,9.77
2019-02-15T00:17:20.216Z,9.67
2019-02-15T00:19:50.751Z,11.47
2019-02-15T00:22:19.314Z,11.07
2019-02-15T00:24:47.751Z,11.50
2019-02-15T00:27:16.194Z,11.80
2019-02-15T00:29:44.728Z,11.73
2019-02-15T00:32:13.335Z,10.27
2019-02-15T00:34:42.051Z,10.87
2019-02-15T00:37:11.235Z,12.20
2019-02-15T00:39:40.548Z,11.30
2019-02-15T00:42:09.271Z,11.87
2019-02-15T00:44:37.735Z,10.70
2019-02-15T00:47:24.785Z,10.30
2019-02-15T00:49:54.893Z,10.90
2019-02-15T00:52:25.241Z,12.07
2019-02-15T00:54:58.980Z,12.17
2019-02-15T00:57:29.237Z,11.90
2019-02-15T00:59:59.566Z,9.90
2019-02-15T01:02:29.665Z,10.87
2019-02-15T01:05:08.588Z,11.47
2019-02-15T01:07:42.163Z,12.53
2019-02-15T01:10:15.261Z,11.80
2019-02-15T01:12:48.438Z,9.93
2019-02-15T01:15:16.957Z,10.13
2019-02-15T01:17:45.702Z,11.17
2019-02-15T01:20:14.987Z,9.53
2019-02-15T01:22:44.265Z,10.53
2019-02-15T01:25:13.755Z,10.60
2019-02-15T01:27:44.336Z,10.70
2019-02-15T01:30:17.853Z,9.67
2019-02-15T01:32:48.372Z,10.50
2019-02-15T01:35:24.903Z,9.20
2019-02-15T01:37:55.396Z,10.17
2019-02-15T01:40:38.264Z,10.33
2019-02-15T01:43:26.785Z,9.60
2019-02-15T01:45:57.167Z,10.23
2019-02-15T01:48:25.872Z,10.33
2019-02-15T01:50:55.004Z,9.93
2019-02-15T01:53:23.841Z,11.67
2019-02-15T01:55:52.634Z,9.07
2019-02-15T01:58:21.357Z,10.47
2019-02-15T02:00:50.575Z,9.80
2019-02-15T02:03:19.111Z,11.40
2019-02-15T02:05:48.004Z,10.50
2019-02-15T02:08:18.522Z,9.63
2019-02-15T02:10:48.179Z,9.80
2019-02-15T02:13:35.840Z,9.23
2019-02-15T02:16:23.470Z,9.13
2019-02-15T02:18:51.924Z,9.70
2019-02-15T02:24:07.961Z,8.97
2019-02-15T02:26:36.412Z,9.00
2019-02-15T02:29:04.849Z,9.37
2019-02-15T02:34:27.866Z,8.20
2019-02-15T02:37:36.280Z,8.33
2019-02-15T02:40:44.750Z,9.90
2019-02-15T02:43:13.180Z,9.80
2019-02-15T02:45:41.704Z,8.60
2019-02-15T02:48:10.162Z,9.83
2019-02-15T02:50:38.599Z,8.50
2019-02-15T02:53:07.035Z,8.90
2019-02-15T02:55:35.482Z,8.60
2019-02-15T02:58:23.103Z,9.10
2019-02-15T03:00:51.568Z,9.00
2019-02-15T03:03:20.002Z,9.23
2019-02-15T03:05:48.433Z,8.80
2019-02-15T03:08:16.894Z,8.30
2019-02-15T03:10:45.421Z,8.77
2019-02-15T03:13:13.846Z,8.43
2019-02-15T03:15:42.658Z,8.30
2019-02-15T03:18:11.087Z,8.90
2019-02-15T03:20:39.520Z,7.50
2019-02-15T03:23:27.485Z,8.30
2019-02-15T03:25:55.909Z,7.83
2019-02-15T03:28:24.442Z,8.90
2019-02-15T03:30:52.944Z,7.73
2019-02-15T03:33:21.553Z,8.70
2019-02-15T03:35:54.363Z,8.50
2019-02-15T03:38:43.046Z,8.27
2019-02-15T03:41:15.974Z,9.30
2019-02-15T03:43:44.412Z,7.80
2019-02-15T03:46:12.959Z,7.80
2019-02-15T03:48:41.395Z,8.90
2019-02-15T03:51:09.821Z,8.53
2019-02-15T03:53:38.532Z,10.40
2019-02-15T03:56:07.043Z,8.63
2019-02-15T03:58:35.610Z,7.93
2019-02-15T04:01:04.165Z,9.77
2019-02-15T04:03:32.751Z,8.23
2019-02-15T04:06:01.590Z,7.93
2019-02-15T04:08:30.102Z,7.90
2019-02-15T04:10:58.561Z,7.40
2019-02-15T04:13:26.959Z,8.10
2019-02-15T04:15:55.550Z,7.70
2019-02-15T04:18:24.068Z,7.30
2019-02-15T04:20:52.672Z,8.37
2019-02-15T04:23:21.143Z,9.20
2019-02-15T04:25:49.557Z,8.43
2019-02-15T04:28:18.157Z,7.97
2019-02-15T04:30:46.613Z,7.20
2019-02-15T04:33:15.052Z,8.77
2019-02-15T04:35:43.577Z,7.97
2019-02-15T04:38:12.145Z,7.50
2019-02-15T04:40:40.573Z,7.90
2019-02-15T04:43:09.094Z,7.90
2019-02-15T04:45:37.635Z,8.80
2019-02-15T04:48:06.085Z,8.53
2019-02-15T04:50:34.502Z,7.40
2019-02-15T04:53:03.338Z,7.40
2019-02-15T04:55:31.762Z,9.43
2019-02-15T04:58:00.280Z,8.57
2019-02-15T05:00:28.749Z,8.13
2019-02-15T05:02:57.269Z,7.37
2019-02-15T05:05:25.680Z,7.00
2019-02-15T05:07:54.235Z,7.07
2019-02-15T05:10:22.665Z,8.87
2019-02-15T05:12:51.121Z,8.10
2019-02-15T05:15:19.580Z,10.47
2019-02-15T05:17:48.004Z,9.50
2019-02-15T05:20:16.729Z,9.30
2019-02-15T05:22:45.188Z,9.70
2019-02-15T05:25:13.619Z,9.13
2019-02-15T05:27:42.142Z,8.30
2019-02-15T05:30:10.684Z,8.27
2019-02-15T05:32:39.165Z,8.80
2019-02-15T05:35:07.672Z,9.07
2019-02-15T05:37:36.414Z,9.60
2019-02-15T05:40:05.776Z,8.27
2019-02-15T05:42:34.200Z,9.43
2019-02-15T05:45:04.135Z,9.53
2019-02-15T05:47:32.834Z,10.70
2019-02-15T05:50:01.273Z,10.17
2019-02-15T05:52:30.053Z,9.27
2019-02-15T05:54:58.530Z,10.00
2019-02-15T05:57:26.946Z,8.90
2019-02-15T05:59:55.426Z,8.00
2019-02-15T06:02:23.945Z,8.80
2019-02-15T06:04:52.372Z,7.90
2019-02-15T06:07:21.002Z,9.40
2019-02-15T06:09:49.441Z,10.27
2019-02-15T06:12:17.941Z,9.33
2019-02-15T06:14:46.541Z,9.50
2019-02-15T06:17:14.973Z,8.97
2019-02-15T06:19:43.402Z,9.13
2019-02-15T06:22:11.999Z,8.60
2019-02-15T06:24:40.720Z,9.33
2019-02-15T06:27:09.164Z,9.80
2019-02-15T06:29:37.604Z,9.30
2019-02-15T06:32:06.038Z,10.17
2019-02-15T06:34:34.493Z,8.73
2019-02-15T06:37:03.032Z,9.47
2019-02-15T06:39:31.466Z,8.70
2019-02-15T06:41:59.895Z,8.53
2019-02-15T06:44:28.368Z,8.87
2019-02-15T06:46:56.784Z,7.27
2019-02-15T06:49:25.251Z,8.37
2019-02-15T06:51:53.816Z,7.80
2019-02-15T06:54:22.252Z,7.97
2019-02-15T06:56:50.676Z,8.83
2019-02-15T06:59:20.945Z,8.63
2019-02-15T07:02:02.660Z,8.07
2019-02-15T07:04:41.398Z,9.43
2019-02-15T07:07:10.013Z,8.37
2019-02-15T07:09:38.776Z,8.13
2019-02-15T07:12:07.232Z,8.57
2019-02-15T07:14:35.947Z,9.77
2019-02-15T07:17:04.441Z,9.40
2019-02-15T07:19:32.910Z,8.13
2019-02-15T07:22:01.699Z,10.07
2019-02-15T07:24:30.232Z,10.40
2019-02-15T07:26:58.696Z,8.60
2019-02-15T07:29:27.129Z,8.27
2019-02-15T07:31:55.827Z,8.20
2019-02-15T07:34:24.286Z,9.10
2019-02-15T07:36:52.717Z,8.87
2019-02-15T07:39:21.150Z,7.70
2019-02-15T07:41:49.619Z,8.00
2019-02-15T07:44:18.053Z,8.97
2019-02-15T07:46:46.818Z,7.97
2019-02-15T07:49:15.294Z,9.23
2019-02-15T07:51:43.822Z,10.47
2019-02-15T07:54:12.253Z,12.60
2019-02-15T07:56:41.283Z,11.33
2019-02-15T07:59:09.681Z,12.60
2019-02-15T08:01:38.119Z,12.37
2019-02-15T08:04:06.949Z,14.10
2019-02-15T08:06:35.692Z,12.60
2019-02-15T08:09:07.189Z,12.23
2019-02-15T08:11:35.641Z,15.20
2019-02-15T08:14:04.078Z,14.20
2019-02-15T08:16:32.514Z,13.07
2019-02-15T08:19:00.983Z,15.37
2019-02-15T08:21:29.490Z,12.83
2019-02-15T08:23:57.928Z,12.20
2019-02-15T08:26:26.807Z,14.30
2019-02-15T08:28:55.253Z,14.80
2019-02-15T08:31:23.693Z,13.07
2019-02-15T08:33:52.677Z,14.23
2019-02-15T08:36:21.480Z,15.30
2019-02-15T08:38:49.891Z,15.67
2019-02-15T08:41:18.356Z,14.37
2019-02-15T08:43:47.222Z,13.80
2019-02-15T08:46:15.750Z,14.77
2019-02-15T08:48:46.173Z,12.17
2019-02-15T08:51:14.366Z,14.20
2019-02-15T08:53:42.797Z,14.93
2019-02-15T08:56:11.705Z,13.77
2019-02-15T08:58:40.182Z,14.00
2019-02-15T09:01:08.617Z,13.67
2019-02-15T09:03:37.936Z,14.37
2019-02-15T09:06:06.393Z,14.40
2019-02-15T09:08:34.826Z,13.73
2019-02-15T09:11:03.313Z,13.60
2019-02-15T09:13:31.760Z,12.40
2019-02-15T09:16:00.216Z,12.90
2019-02-15T09:18:28.799Z,11.67
2019-02-15T09:20:57.300Z,11.40
2019-02-15T09:23:26.686Z,9.80
2019-02-15T09:25:55.144Z,10.77
2019-02-15T09:28:29.152Z,10.77
2019-02-15T09:30:57.726Z,10.80
2019-02-15T09:33:26.972Z,10.70
2019-02-15T09:35:55.492Z,9.77
2019-02-15T09:38:24.242Z,11.97
2019-02-15T09:40:52.977Z,11.53
2019-02-15T09:43:21.768Z,10.87
2019-02-15T09:45:50.152Z,9.47
2019-02-15T09:48:18.833Z,9.83
2019-02-15T09:50:47.281Z,10.43
2019-02-15T09:53:15.716Z,10.27
2019-02-15T09:55:44.183Z,9.43
2019-02-15T09:58:12.708Z,10.30
2019-02-15T10:00:41.134Z,9.60
2019-02-15T10:03:09.605Z,11.33
2019-02-15T10:05:38.143Z,8.83
2019-02-15T10:08:06.638Z,9.00
2019-02-15T10:10:35.415Z,10.97
2019-02-15T10:13:03.917Z,10.50
2019-02-15T10:15:32.693Z,10.90
2019-02-15T10:18:01.161Z,11.40
2019-02-15T10:20:29.578Z,11.50
2019-02-15T10:22:58.007Z,10.47
2019-02-15T10:25:26.759Z,11.60
2019-02-15T10:27:55.279Z,12.83
2019-02-15T10:30:24.010Z,11.63
2019-02-15T10:32:52.476Z,11.00
2019-02-15T10:35:21.260Z,12.10
2019-02-15T10:37:49.688Z,11.43
2019-02-15T10:40:18.155Z,10.90
2019-02-15T10:42:46.904Z,11.30
2019-02-15T10:45:16.266Z,13.03
2019-02-15T10:47:44.742Z,12.30
2019-02-15T10:50:13.463Z,11.10
2019-02-15T10:52:41.954Z,11.50
2019-02-15T10:55:10.560Z,11.73
2019-02-15T10:57:39.076Z,12.17
2019-02-15T11:00:15.224Z,12.77
2019-02-15T11:02:43.972Z,12.47
2019-02-15T11:05:12.181Z,13.87
2019-02-15T11:07:40.959Z,12.47
2019-02-15T11:10:10.332Z,11.90
2019-02-15T11:12:38.760Z,14.10
2019-02-15T11:15:10.521Z,12.40
2019-02-15T11:17:38.945Z,12.83
2019-02-15T11:20:10.674Z,11.97
2019-02-15T11:22:39.640Z,13.27
2019-02-15T11:25:10.315Z,13.03
2019-02-15T11:27:38.771Z,12.77
2019-02-15T11:30:13.157Z,13.00
2019-02-15T11:32:41.589Z,11.97
2019-02-15T11:35:14.591Z,12.47
2019-02-15T11:37:43.041Z,12.13
2019-02-15T11:40:15.768Z,11.57
2019-02-15T11:42:44.193Z,11.00
2019-02-15T11:45:14.017Z,12.17
2019-02-15T11:47:42.449Z,11.13
2019-02-15T11:50:12.524Z,11.70
2019-02-15T11:52:41.269Z,12.07
2019-02-15T11:55:11.098Z,12.40
2019-02-15T11:57:39.566Z,12.47
2019-02-15T12:00:23.320Z,11.43
2019-02-15T12:02:52.087Z,12.97
2019-02-15T12:05:20.853Z,11.80
2019-02-15T12:07:49.409Z,13.03
2019-02-15T12:10:17.942Z,11.27
2019-02-15T12:12:46.424Z,11.90
2019-02-15T12:15:15.006Z,13.50
2019-02-15T12:17:43.438Z,13.87
2019-02-15T12:20:13.710Z,12.40
2019-02-15T12:22:42.238Z,12.03
2019-02-15T12:25:10.912Z,13.07
2019-02-15T12:27:39.345Z,11.23
2019-02-15T12:30:10.529Z,11.13
2019-02-15T12:32:38.962Z,10.87
2019-02-15T12:35:08.997Z,11.33
2019-02-15T12:37:37.520Z,11.70
2019-02-15T12:40:07.993Z,11.87
2019-02-15T12:42:36.426Z,11.53
2019-02-15T12:45:07.621Z,11.87
2019-02-15T12:47:36.514Z,12.43
2019-02-15T12:50:10.772Z,12.60
2019-02-15T12:52:39.249Z,10.67
2019-02-15T12:55:07.821Z,11.53
2019-02-15T12:57:36.422Z,11.20
2019-02-15T13:00:15.451Z,10.67
2019-02-15T13:02:44.288Z,11.53
2019-02-15T13:05:13.831Z,12.00
2019-02-15T13:07:42.765Z,12.20
2019-02-15T13:10:22.700Z,11.67
2019-02-15T13:12:51.582Z,10.63
2019-02-15T13:15:20.024Z,12.57
2019-02-15T13:17:48.550Z,10.07
2019-02-15T13:20:17.440Z,12.30
2019-02-15T13:22:45.968Z,12.30
2019-02-15T13:25:14.610Z,14.30
2019-02-15T13:27:43.069Z,10.17
2019-02-15T13:30:13.702Z,11.10
2019-02-15T13:32:42.540Z,9.43
2019-02-15T13:35:14.045Z,10.30
2019-02-15T13:37:42.796Z,8.40
2019-02-15T13:40:11.304Z,9.70
2019-02-15T13:42:39.755Z,6.43
2019-02-15T13:45:10.924Z,7.97
2019-02-15T13:47:39.331Z,6.50
2019-02-15T13:50:10.787Z,6.03
2019-02-15T13:52:39.251Z,6.50
2019-02-15T13:55:08.892Z,5.40
2019-02-15T13:57:38.342Z,6.07
2019-02-15T14:00:10.072Z,5.40
2019-02-15T14:02:38.555Z,5.73
2019-02-15T14:05:09.848Z,4.47
2019-02-15T14:07:38.271Z,4.40
2019-02-15T14:10:12.272Z,4.27
2019-02-15T14:12:41.084Z,4.03
2019-02-15T14:15:11.252Z,5.70
2019-02-15T14:17:44.962Z,4.93
2019-02-15T14:20:12.039Z,4.47
2019-02-15T14:22:40.469Z,5.30
2019-02-15T14:25:11.482Z,5.40
2019-02-15T14:27:40.325Z,6.17
2019-02-15T14:30:13.756Z,5.27
2019-02-15T14:32:42.181Z,6.40
2019-02-15T14:35:12.720Z,6.60
2019-02-15T14:37:41.145Z,5.97
2019-02-15T14:40:11.580Z,6.50
2019-02-15T14:42:40.107Z,6.73
2019-02-15T14:45:12.948Z,6.77
2019-02-15T14:47:41.376Z,7.43
2019-02-15T14:50:11.073Z,6.90
2019-02-15T14:52:40.515Z,6.97
2019-02-15T14:55:12.784Z,7.43
2019-02-15T14:57:41.232Z,7.50
2019-02-15T15:00:13.925Z,7.07
2019-02-15T15:02:42.658Z,7.03
2019-02-15T15:05:13.492Z,7.87
2019-02-15T15:07:41.998Z,7.53
2019-02-15T15:10:11.455Z,8.20
2019-02-15T15:12:40.165Z,7.47
2019-02-15T15:15:13.641Z,6.67
2019-02-15T15:17:42.225Z,7.80
2019-02-15T15:20:12.041Z,7.27
2019-02-15T15:22:40.542Z,8.00
2019-02-15T15:25:13.467Z,6.10
2019-02-15T15:27:41.929Z,7.40
2019-02-15T15:30:29.719Z,6.83
2019-02-15T15:35:32.605Z,6.27
2019-02-15T15:38:01.068Z,6.43
2019-02-15T15:40:29.510Z,7.30
2019-02-15T15:42:58.045Z,5.70
2019-02-15T15:45:45.625Z,5.70
2019-02-15T15:48:22.499Z,5.57
2019-02-15T15:50:44.580Z,6.03
2019-02-15T15:53:13.028Z,5.07
2019-02-15T15:55:41.459Z,5.93
2019-02-15T15:58:10.223Z,7.77
2019-02-15T16:00:58.116Z,5.93
2019-02-15T16:03:26.864Z,6.77
2019-02-15T16:05:55.297Z,7.03
2019-02-15T16:08:23.757Z,7.30
2019-02-15T16:10:52.491Z,6.93
2019-02-15T16:13:20.920Z,6.30
2019-02-15T16:15:49.377Z,5.83
2019-02-15T16:18:17.818Z,7.20
2019-02-15T16:20:46.238Z,7.30
2019-02-15T16:23:14.837Z,7.00
2019-02-15T16:25:43.276Z,6.20
2019-02-15T16:28:11.720Z,5.83
2019-02-15T16:33:13.946Z,5.93
2019-02-15T16:38:35.340Z,5.97
2019-02-15T16:41:04.166Z,5.80
2019-02-15T16:43:32.588Z,5.10
2019-02-15T16:46:01.113Z,5.87
2019-02-15T16:48:29.581Z,6.00
2019-02-15T16:50:58.014Z,6.30
2019-02-15T16:53:26.552Z,6.57
2019-02-15T16:55:55.012Z,7.20
2019-02-15T16:58:23.444Z,7.00
2019-02-15T17:00:51.969Z,6.70
2019-02-15T17:03:20.529Z,8.07
2019-02-15T17:05:49.297Z,6.87
2019-02-15T17:08:17.810Z,6.00
2019-02-15T17:10:46.365Z,5.83
2019-02-15T17:13:15.140Z,6.10
2019-02-15T17:15:43.558Z,6.43
2019-02-15T17:18:12.104Z,6.20
2019-02-15T17:20:40.523Z,6.20
2019-02-15T17:23:08.967Z,7.00
2019-02-15T17:25:37.513Z,7.00
2019-02-15T17:28:05.936Z,5.90
2019-02-15T17:30:53.848Z,6.80
2019-02-15T17:33:22.358Z,5.53
2019-02-15T17:35:50.790Z,7.07
2019-02-15T17:40:53.086Z,6.93
2019-02-15T17:43:40.801Z,6.83
2019-02-15T17:46:09.235Z,6.33
2019-02-15T17:48:37.659Z,6.17
2019-02-15T17:51:25.303Z,6.73
2019-02-15T17:53:53.835Z,6.60
2019-02-15T17:56:41.818Z,5.87
2019-02-15T17:59:10.229Z,8.47
2019-02-15T18:01:38.659Z,7.03
2019-02-15T18:04:07.108Z,7.53
2019-02-15T18:06:35.665Z,6.40
2019-02-15T18:09:44.122Z,7.40
2019-02-15T18:12:12.551Z,6.87
2019-02-15T18:14:40.980Z,5.13
2019-02-15T18:17:09.474Z,6.73
2019-02-15T18:19:46.930Z,6.67
2019-02-15T18:22:27.472Z,6.00
2019-02-15T18:24:55.894Z,5.47
2019-02-15T18:27:24.769Z,6.53
2019-02-15T18:29:53.557Z,6.63
2019-02-15T18:32:22.130Z,6.50
2019-02-15T18:40:33.037Z,6.00
2019-02-15T18:43:01.671Z,6.40
2019-02-15T18:45:30.204Z,6.87
2019-02-15T18:48:18.381Z,7.47
2019-02-15T18:51:06.181Z,6.43
2019-02-15T18:53:53.877Z,6.80
2019-02-15T18:56:41.701Z,7.13
2019-02-15T18:59:30.309Z,7.40
2019-02-15T19:02:18.097Z,6.70
2019-02-15T19:10:54.442Z,6.13
2019-02-15T19:13:42.267Z,6.80
2019-02-15T19:16:30.053Z,6.10
2019-02-15T19:19:17.883Z,7.50
2019-02-15T19:22:05.735Z,6.70
2019-02-15T19:27:47.635Z,7.60
2019-02-15T19:30:56.447Z,8.57
2019-02-15T19:33:44.124Z,7.80
2019-02-15T19:36:31.811Z,8.63
2019-02-15T19:39:40.258Z,7.87
2019-02-15T19:42:29.610Z,7.30
2019-02-15T19:48:45.127Z,6.43
2019-02-15T19:51:35.880Z,7.90
2019-02-15T19:54:23.706Z,8.60
2019-02-15T19:57:11.436Z,7.70
2019-02-15T20:03:06.022Z,7.47
2019-02-15T20:06:13.251Z,7.90
2019-02-15T20:09:01.035Z,7.83
2019-02-15T20:11:31.826Z,7.00
2019-02-15T20:14:19.631Z,7.60
2019-02-15T20:17:07.516Z,7.87
2019-02-15T20:19:55.248Z,8.40
2019-02-15T20:22:43.185Z,7.03
2019-02-15T20:31:37.006Z,8.50
2019-02-15T20:34:24.895Z,7.90
2019-02-15T20:37:12.803Z,8.43
2019-02-15T20:40:00.697Z,8.20
2019-02-15T20:43:09.264Z,8.23
2019-02-15T20:48:44.977Z,8.90
2019-02-15T20:51:13.588Z,7.73
2019-02-15T20:54:01.561Z,8.30
2019-02-15T20:56:49.359Z,8.80
2019-02-15T20:59:37.258Z,6.60
2019-02-15T21:02:25.804Z,8.20
2019-02-15T21:05:13.602Z,8.80
2019-02-15T21:08:01.745Z,9.23
2019-02-15T21:10:55.023Z,8.13
2019-02-15T21:13:20.701Z,8.23
2019-02-15T21:19:16.170Z,8.50
2019-02-15T21:22:04.090Z,8.97
2019-02-15T21:24:51.887Z,8.80
2019-02-15T21:30:13.274Z,7.57
2019-02-15T21:33:01.065Z,8.00
2019-02-15T21:35:49.296Z,7.90
2019-02-15T21:38:36.881Z,7.57
2019-02-15T21:41:24.589Z,7.77
2019-02-15T21:44:12.302Z,7.30
2019-02-15T21:47:00.123Z,7.40
2019-02-15T21:49:48.210Z,7.97
2019-02-15T21:52:16.715Z,6.80
2019-02-15T21:58:00.846Z,8.30
2019-02-15T22:01:02.263Z,7.10
2019-02-15T22:06:23.861Z,6.47
2019-02-15T22:08:52.328Z,6.80
2019-02-15T22:11:40.187Z,6.17
2019-02-15T22:14:08.743Z,7.30
2019-02-15T22:16:37.513Z,7.60
2019-02-15T22:19:06.068Z,6.63
2019-02-15T22:24:22.060Z,7.27
2019-02-15T22:26:50.792Z,8.33
2019-02-15T22:29:38.734Z,7.60
2019-02-15T22:32:07.256Z,7.20
2019-02-15T22:34:36.612Z,7.93
2019-02-15T22:37:05.072Z,8.30
2019-02-15T22:39:33.502Z,8.70
2019-02-15T22:42:21.245Z,8.97
2019-02-15T22:44:49.770Z,7.13
2019-02-15T22:47:18.287Z,7.00
2019-02-15T22:49:46.995Z,9.17
2019-02-15T22:52:17.091Z,7.67
2019-02-15T22:54:45.517Z,8.67
2019-02-15T22:57:13.968Z,7.50
2019-02-15T22:59:42.485Z,7.80
2019-02-15T23:02:50.876Z,7.83
2019-02-15T23:05:19.466Z,8.33
2019-02-15T23:08:07.119Z,8.97
2019-02-15T23:10:35.620Z,9.53
2019-02-15T23:16:12.374Z,11.33
2019-02-15T23:18:40.809Z,10.47
2019-02-15T23:21:09.255Z,10.10
2019-02-15T23:23:37.979Z,10.57
2019-02-15T23:26:06.411Z,9.50
2019-02-15T23:28:34.843Z,9.50
2019-02-15T23:31:22.628Z,11.23
2019-02-15T23:33:51.053Z,8.40
2019-02-15T23:36:19.573Z,8.60
2019-02-15T23:38:48.030Z,8.30
2019-02-15T23:41:16.532Z,7.80
2019-02-15T23:43:44.953Z,7.90
2019-02-15T23:46:13.421Z,7.97
2019-02-15T23:49:00.991Z,7.80
2019-02-15T23:51:29.783Z,6.87
2019-02-15T23:53:58.560Z,7.50
2019-02-15T23:56:26.984Z,7.80
2019-02-15T23:58:55.460Z,7.90
